sensor_id;sensor_type;location;lat;lon;timestamp;P1;durP1;ratioP1;P2;durP2;ratioP2
61570;SDS011;47463;49.884;10.010;2023-01-09T00:00:00;13.1;;;8.8;;
61570;SDS011;47463;49.884;10.010;2023-01-09T00:05:00;12.8;;;8.9;;
61570;SDS011;47463;49.884;10.010;2023-01-09T00:10:00;14.9;;;9.3;;
61570;SDS011;47463;49.884;10.010;2023-01-09T00:15:00;12.3;;;9.1;;
61570;SDS011;47463;49.884;10.010;2023-01-09T00:20:00;14;;;8.6;;
61570;SDS011;47463;49.884;10.010;2023-01-09T00:25:00;11.8;;;8.4;;
61570;SDS011;47463;49.884;10.010;2023-01-09T00:30:00;11.8;;;8.4;;
61570;SDS011;47463;49.884;10.010;2023-01-09T00:35:00;15.2;;;9.1;;
61570;SDS011;47463;49.884;10.010;2023-01-09T00:40:00;13.6;;;9.4;;
61570;SDS011;47463;49.884;10.010;2023-01-09T00:45:00;12.3;;;8.6;;
61570;SDS011;47463;49.884;10.010;2023-01-09T00:50:01;14.3;;;8.6;;
61570;SDS011;47463;49.884;10.010;2023-01-09T00:55:00;11.2;;;8;;
61570;SDS011;47463;49.884;10.010;2023-01-09T01:00:00;11.2;;;8;;
61570;SDS011;47463;49.884;10.010;2023-01-09T01:05:01;10;;;7.7;;
61570;SDS011;47463;49.884;10.010;2023-01-09T01:10:00;13.1;;;8.8;;
61570;SDS011;47463;49.884;10.010;2023-01-09T01:15:00;12.4;;;7.6;;
61570;SDS011;47463;49.884;10.010;2023-01-09T01:20:00;15.5;;;9.3;;
61570;SDS011;47463;49.884;10.010;2023-01-09T01:25:00;14.8;;;8.8;;
61570;SDS011;47463;49.884;10.010;2023-01-09T01:30:00;14.8;;;8.8;;
61570;SDS011;47463;49.884;10.010;2023-01-09T01:35:00;10.9;;;7.3;;
61570;SDS011;47463;49.884;10.010;2023-01-09T01:40:00;10.6;;;7.2;;
61570;SDS011;47463;49.884;10.010;2023-01-09T01:45:01;10.6;;;7.3;;
61570;SDS011;47463;49.884;10.010;2023-01-09T01:50:00;11.5;;;7.6;;
61570;SDS011;47463;49.884;10.010;2023-01-09T01:55:00;10.5;;;7.3;;
61570;SDS011;47463;49.884;10.010;2023-01-09T02:00:00;10.5;;;7.3;;
61570;SDS011;47463;49.884;10.010;2023-01-09T02:05:00;10.8;;;7.3;;
61570;SDS011;47463;49.884;10.010;2023-01-09T02:10:00;10.8;;;7.4;;
61570;SDS011;47463;49.884;10.010;2023-01-09T02:15:01;13.7;;;7.8;;
61570;SDS011;47463;49.884;10.010;2023-01-09T02:20:07;11.9;;;8.4;;
61570;SDS011;47463;49.884;10.010;2023-01-09T02:25:06;11.1;;;7.6;;
61570;SDS011;47463;49.884;10.010;2023-01-09T02:30:32;11.1;;;7.6;;
61570;SDS011;47463;49.884;10.010;2023-01-09T02:35:03;12.3;;;7.8;;
61570;SDS011;47463;49.884;10.010;2023-01-09T02:40:01;12.7;;;8.1;;
61570;SDS011;47463;49.884;10.010;2023-01-09T02:45:00;11.4;;;7.4;;
61570;SDS011;47463;49.884;10.010;2023-01-09T02:50:01;13.7;;;8.7;;
61570;SDS011;47463;49.884;10.010;2023-01-09T02:55:01;14;;;8.9;;
61570;SDS011;47463;49.884;10.010;2023-01-09T03:00:03;14;;;8.9;;
61570;SDS011;47463;49.884;10.010;2023-01-09T03:05:02;14.2;;;8.6;;
61570;SDS011;47463;49.884;10.010;2023-01-09T03:10:02;13.8;;;9;;
61570;SDS011;47463;49.884;10.010;2023-01-09T03:15:00;14.2;;;8.8;;
61570;SDS011;47463;49.884;10.010;2023-01-09T03:20:00;14;;;8.8;;
61570;SDS011;47463;49.884;10.010;2023-01-09T03:25:00;11.5;;;7.8;;
61570;SDS011;47463;49.884;10.010;2023-01-09T03:30:00;11.5;;;7.8;;
61570;SDS011;47463;49.884;10.010;2023-01-09T03:35:00;14;;;8.7;;
61570;SDS011;47463;49.884;10.010;2023-01-09T03:40:00;14.1;;;8.5;;
61570;SDS011;47463;49.884;10.010;2023-01-09T03:45:00;13.7;;;8.8;;
61570;SDS011;47463;49.884;10.010;2023-01-09T03:50:00;11.6;;;8;;
61570;SDS011;47463;49.884;10.010;2023-01-09T03:55:00;9.6;;;7.1;;
61570;SDS011;47463;49.884;10.010;2023-01-09T04:00:00;9.6;;;7.1;;
61570;SDS011;47463;49.884;10.010;2023-01-09T04:05:00;9.7;;;6.3;;
61570;SDS011;47463;49.884;10.010;2023-01-09T04:10:00;7.3;;;5.5;;
61570;SDS011;47463;49.884;10.010;2023-01-09T04:15:00;5.3;;;4.1;;
61570;SDS011;47463;49.884;10.010;2023-01-09T04:20:00;5.3;;;3.5;;
61570;SDS011;47463;49.884;10.010;2023-01-09T04:25:00;6;;;3.5;;
61570;SDS011;47463;49.884;10.010;2023-01-09T04:30:00;6;;;3.5;;
61570;SDS011;47463;49.884;10.010;2023-01-09T04:35:00;4.2;;;3.2;;
61570;SDS011;47463;49.884;10.010;2023-01-09T04:40:00;4.7;;;3.1;;
61570;SDS011;47463;49.884;10.010;2023-01-09T04:45:00;5;;;3.5;;
61570;SDS011;47463;49.884;10.010;2023-01-09T04:50:00;5.5;;;3.8;;
61570;SDS011;47463;49.884;10.010;2023-01-09T04:55:00;5;;;3.8;;
61570;SDS011;47463;49.884;10.010;2023-01-09T05:00:00;5;;;3.8;;
61570;SDS011;47463;49.884;10.010;2023-01-09T05:05:00;5.6;;;3.8;;
61570;SDS011;47463;49.884;10.010;2023-01-09T05:10:00;5.6;;;4.2;;
61570;SDS011;47463;49.884;10.010;2023-01-09T05:15:00;5.6;;;3.9;;
61570;SDS011;47463;49.884;10.010;2023-01-09T05:20:00;5.2;;;3.3;;
61570;SDS011;47463;49.884;10.010;2023-01-09T05:25:00;2.8;;;1.8;;
61570;SDS011;47463;49.884;10.010;2023-01-09T05:30:00;2.8;;;1.8;;
61570;SDS011;47463;49.884;10.010;2023-01-09T05:35:00;1.8;;;1.4;;
61570;SDS011;47463;49.884;10.010;2023-01-09T05:40:00;2.6;;;1.2;;
61570;SDS011;47463;49.884;10.010;2023-01-09T05:45:00;1.7;;;1.4;;
61570;SDS011;47463;49.884;10.010;2023-01-09T05:50:00;3.7;;;2.4;;
61570;SDS011;47463;49.884;10.010;2023-01-09T05:55:00;2;;;1.2;;
61570;SDS011;47463;49.884;10.010;2023-01-09T06:00:00;2;;;1.2;;
61570;SDS011;47463;49.884;10.010;2023-01-09T06:05:00;2.6;;;1.3;;
61570;SDS011;47463;49.884;10.010;2023-01-09T06:10:00;2.2;;;1.2;;
61570;SDS011;47463;49.884;10.010;2023-01-09T06:15:00;2.9;;;1.2;;
61570;SDS011;47463;49.884;10.010;2023-01-09T06:20:00;0.9;;;0.7;;
61570;SDS011;47463;49.884;10.010;2023-01-09T06:25:00;1.4;;;0.8;;
61570;SDS011;47463;49.884;10.010;2023-01-09T06:30:00;1.4;;;0.8;;
61570;SDS011;47463;49.884;10.010;2023-01-09T06:35:00;2.4;;;0.7;;
61570;SDS011;47463;49.884;10.010;2023-01-09T06:40:00;0.7;;;0.5;;
61570;SDS011;47463;49.884;10.010;2023-01-09T06:45:00;1.2;;;0.6;;
61570;SDS011;47463;49.884;10.010;2023-01-09T06:50:00;0.8;;;0.6;;
61570;SDS011;47463;49.884;10.010;2023-01-09T06:55:00;0.9;;;0.6;;
61570;SDS011;47463;49.884;10.010;2023-01-09T07:00:00;0.9;;;0.6;;
61570;SDS011;47463;49.884;10.010;2023-01-09T07:05:00;1.3;;;0.9;;
61570;SDS011;47463;49.884;10.010;2023-01-09T07:10:00;1;;;0.8;;
61570;SDS011;47463;49.884;10.010;2023-01-09T07:15:00;2.3;;;0.9;;
61570;SDS011;47463;49.884;10.010;2023-01-09T07:20:00;1.6;;;0.7;;
61570;SDS011;47463;49.884;10.010;2023-01-09T07:25:00;2.5;;;0.9;;
61570;SDS011;47463;49.884;10.010;2023-01-09T07:30:00;2.5;;;0.9;;
61570;SDS011;47463;49.884;10.010;2023-01-09T07:35:00;1.6;;;0.8;;
61570;SDS011;47463;49.884;10.010;2023-01-09T07:40:00;2.6;;;1.4;;
61570;SDS011;47463;49.884;10.010;2023-01-09T07:45:00;1.5;;;1.2;;
61570;SDS011;47463;49.884;10.010;2023-01-09T07:50:00;2.1;;;1.3;;
61570;SDS011;47463;49.884;10.010;2023-01-09T07:55:00;2.4;;;1.7;;
61570;SDS011;47463;49.884;10.010;2023-01-09T08:00:00;2.4;;;1.7;;
61570;SDS011;47463;49.884;10.010;2023-01-09T08:05:00;2.5;;;1.7;;
61570;SDS011;47463;49.884;10.010;2023-01-09T08:10:00;3.2;;;1.7;;
61570;SDS011;47463;49.884;10.010;2023-01-09T08:15:00;2.1;;;1.3;;
61570;SDS011;47463;49.884;10.010;2023-01-09T08:20:00;3.4;;;1.4;;
61570;SDS011;47463;49.884;10.010;2023-01-09T08:25:00;2.9;;;1.3;;
61570;SDS011;47463;49.884;10.010;2023-01-09T08:30:00;2.9;;;1.3;;
61570;SDS011;47463;49.884;10.010;2023-01-09T08:35:00;1.9;;;1.2;;
61570;SDS011;47463;49.884;10.010;2023-01-09T08:40:00;2.4;;;1.2;;
61570;SDS011;47463;49.884;10.010;2023-01-09T08:45:00;2.5;;;1.1;;
61570;SDS011;47463;49.884;10.010;2023-01-09T08:50:00;5;;;1;;
61570;SDS011;47463;49.884;10.010;2023-01-09T08:55:00;2.5;;;1.1;;
61570;SDS011;47463;49.884;10.010;2023-01-09T09:00:00;2.5;;;1.1;;
61570;SDS011;47463;49.884;10.010;2023-01-09T09:05:00;1.9;;;0.8;;
61570;SDS011;47463;49.884;10.010;2023-01-09T09:10:00;3.1;;;1.2;;
61570;SDS011;47463;49.884;10.010;2023-01-09T09:15:00;4.5;;;1.2;;
61570;SDS011;47463;49.884;10.010;2023-01-09T09:20:00;4.7;;;1.1;;
61570;SDS011;47463;49.884;10.010;2023-01-09T09:25:00;4.3;;;1.1;;
61570;SDS011;47463;49.884;10.010;2023-01-09T09:30:00;4.3;;;1.1;;
61570;SDS011;47463;49.884;10.010;2023-01-09T09:35:00;3;;;1;;
61570;SDS011;47463;49.884;10.010;2023-01-09T09:40:00;2.7;;;1.2;;
61570;SDS011;47463;49.884;10.010;2023-01-09T09:45:04;6.5;;;1.6;;
61570;SDS011;47463;49.884;10.010;2023-01-09T09:50:02;3.2;;;1.4;;
61570;SDS011;47463;49.884;10.010;2023-01-09T09:55:01;4.8;;;1.6;;
61570;SDS011;47463;49.884;10.010;2023-01-09T10:00:00;4.8;;;1.6;;
61570;SDS011;47463;49.884;10.010;2023-01-09T10:05:03;5.6;;;1.6;;
61570;SDS011;47463;49.884;10.010;2023-01-09T10:10:00;4;;;1.5;;
61570;SDS011;47463;49.884;10.010;2023-01-09T10:15:01;3;;;1.3;;
61570;SDS011;47463;49.884;10.010;2023-01-09T10:20:09;3;;;1.3;;
61570;SDS011;47463;49.884;10.010;2023-01-09T10:25:03;5.4;;;1.5;;
61570;SDS011;47463;49.884;10.010;2023-01-09T10:30:02;5.4;;;1.5;;
61570;SDS011;47463;49.884;10.010;2023-01-09T10:35:03;5;;;1.5;;
61570;SDS011;47463;49.884;10.010;2023-01-09T10:40:01;3.2;;;0.9;;
61570;SDS011;47463;49.884;10.010;2023-01-09T10:45:01;4.5;;;1;;
61570;SDS011;47463;49.884;10.010;2023-01-09T10:50:00;5.1;;;0.9;;
61570;SDS011;47463;49.884;10.010;2023-01-09T10:55:01;5.4;;;0.9;;
61570;SDS011;47463;49.884;10.010;2023-01-09T11:00:00;5.4;;;0.9;;
61570;SDS011;47463;49.884;10.010;2023-01-09T11:05:00;2.9;;;0.7;;
61570;SDS011;47463;49.884;10.010;2023-01-09T11:10:00;4.2;;;0.8;;
61570;SDS011;47463;49.884;10.010;2023-01-09T11:15:16;1.4;;;0.6;;
61570;SDS011;47463;49.884;10.010;2023-01-09T11:20:00;1.8;;;0.5;;
61570;SDS011;47463;49.884;10.010;2023-01-09T11:25:00;2.4;;;0.7;;
61570;SDS011;47463;49.884;10.010;2023-01-09T11:30:16;2.4;;;0.7;;
61570;SDS011;47463;49.884;10.010;2023-01-09T11:35:00;1.6;;;0.6;;
61570;SDS011;47463;49.884;10.010;2023-01-09T11:40:00;1.7;;;0.6;;
61570;SDS011;47463;49.884;10.010;2023-01-09T11:45:00;2.5;;;0.6;;
61570;SDS011;47463;49.884;10.010;2023-01-09T11:50:06;1.3;;;0.7;;
61570;SDS011;47463;49.884;10.010;2023-01-09T11:55:00;2.7;;;0.6;;
61570;SDS011;47463;49.884;10.010;2023-01-09T12:00:00;2.7;;;0.6;;
61570;SDS011;47463;49.884;10.010;2023-01-09T12:05:00;2.3;;;0.7;;
61570;SDS011;47463;49.884;10.010;2023-01-09T12:10:02;2.3;;;0.6;;
61570;SDS011;47463;49.884;10.010;2023-01-09T12:15:02;1.4;;;0.6;;
61570;SDS011;47463;49.884;10.010;2023-01-09T12:20:04;1.9;;;0.5;;
61570;SDS011;47463;49.884;10.010;2023-01-09T12:25:04;3.5;;;0.6;;
61570;SDS011;47463;49.884;10.010;2023-01-09T12:30:03;3.5;;;0.6;;
61570;SDS011;47463;49.884;10.010;2023-01-09T12:35:01;3.4;;;0.7;;
61570;SDS011;47463;49.884;10.010;2023-01-09T12:40:02;1.3;;;0.5;;
61570;SDS011;47463;49.884;10.010;2023-01-09T12:45:00;1.5;;;0.5;;
61570;SDS011;47463;49.884;10.010;2023-01-09T12:50:01;2.1;;;0.8;;
61570;SDS011;47463;49.884;10.010;2023-01-09T12:55:00;1.7;;;0.5;;
61570;SDS011;47463;49.884;10.010;2023-01-09T13:00:01;1.7;;;0.5;;
61570;SDS011;47463;49.884;10.010;2023-01-09T13:05:01;1.5;;;0.5;;
61570;SDS011;47463;49.884;10.010;2023-01-09T13:10:01;2.4;;;0.7;;
61570;SDS011;47463;49.884;10.010;2023-01-09T13:15:00;3;;;0.8;;
61570;SDS011;47463;49.884;10.010;2023-01-09T13:20:00;2;;;0.5;;
61570;SDS011;47463;49.884;10.010;2023-01-09T13:25:14;0.9;;;0.4;;
61570;SDS011;47463;49.884;10.010;2023-01-09T13:30:02;0.9;;;0.4;;
61570;SDS011;47463;49.884;10.010;2023-01-09T13:35:00;2.1;;;0.8;;
61570;SDS011;47463;49.884;10.010;2023-01-09T13:40:00;1.5;;;0.8;;
61570;SDS011;47463;49.884;10.010;2023-01-09T13:45:07;2.5;;;0.8;;
61570;SDS011;47463;49.884;10.010;2023-01-09T13:50:18;1;;;0.5;;
61570;SDS011;47463;49.884;10.010;2023-01-09T13:55:01;2.6;;;0.5;;
61570;SDS011;47463;49.884;10.010;2023-01-09T14:01:09;2.6;;;0.5;;
61570;SDS011;47463;49.884;10.010;2023-01-09T14:05:00;3.3;;;0.5;;
61570;SDS011;47463;49.884;10.010;2023-01-09T14:10:00;1.3;;;0.6;;
61570;SDS011;47463;49.884;10.010;2023-01-09T14:15:00;1.2;;;0.4;;
61570;SDS011;47463;49.884;10.010;2023-01-09T14:20:00;1.2;;;0.5;;
61570;SDS011;47463;49.884;10.010;2023-01-09T14:25:00;1.3;;;0.6;;
61570;SDS011;47463;49.884;10.010;2023-01-09T14:30:15;1.3;;;0.6;;
61570;SDS011;47463;49.884;10.010;2023-01-09T14:35:01;0.6;;;0.4;;
61570;SDS011;47463;49.884;10.010;2023-01-09T14:40:00;1.8;;;0.5;;
61570;SDS011;47463;49.884;10.010;2023-01-09T14:45:00;1.7;;;1;;
61570;SDS011;47463;49.884;10.010;2023-01-09T14:50:00;1.5;;;0.7;;
61570;SDS011;47463;49.884;10.010;2023-01-09T14:55:00;0.8;;;0.6;;
61570;SDS011;47463;49.884;10.010;2023-01-09T15:00:01;0.8;;;0.6;;
61570;SDS011;47463;49.884;10.010;2023-01-09T15:05:00;1.9;;;0.7;;
61570;SDS011;47463;49.884;10.010;2023-01-09T15:10:00;2.8;;;0.8;;
61570;SDS011;47463;49.884;10.010;2023-01-09T15:15:00;3.3;;;1.4;;
61570;SDS011;47463;49.884;10.010;2023-01-09T15:20:00;0.8;;;0.7;;
61570;SDS011;47463;49.884;10.010;2023-01-09T15:25:11;1.4;;;0.7;;
61570;SDS011;47463;49.884;10.010;2023-01-09T15:30:00;1.4;;;0.7;;
61570;SDS011;47463;49.884;10.010;2023-01-09T15:35:00;2.8;;;0.9;;
61570;SDS011;47463;49.884;10.010;2023-01-09T15:40:00;1.4;;;1.1;;
61570;SDS011;47463;49.884;10.010;2023-01-09T15:45:00;1.3;;;0.6;;
61570;SDS011;47463;49.884;10.010;2023-01-09T15:50:00;2.5;;;0.9;;
61570;SDS011;47463;49.884;10.010;2023-01-09T15:55:00;2.3;;;0.8;;
61570;SDS011;47463;49.884;10.010;2023-01-09T16:01:05;2.3;;;0.8;;
61570;SDS011;47463;49.884;10.010;2023-01-09T16:05:03;2.8;;;0.7;;
61570;SDS011;47463;49.884;10.010;2023-01-09T16:10:00;2.4;;;1;;
61570;SDS011;47463;49.884;10.010;2023-01-09T16:15:00;2.8;;;1;;
61570;SDS011;47463;49.884;10.010;2023-01-09T16:20:11;2.7;;;1.2;;
61570;SDS011;47463;49.884;10.010;2023-01-09T16:25:00;2.6;;;1;;
61570;SDS011;47463;49.884;10.010;2023-01-09T16:30:00;2.6;;;1;;
61570;SDS011;47463;49.884;10.010;2023-01-09T16:35:04;2;;;1.1;;
61570;SDS011;47463;49.884;10.010;2023-01-09T16:40:21;2.9;;;1.1;;
61570;SDS011;47463;49.884;10.010;2023-01-09T16:45:00;2.4;;;1.2;;
61570;SDS011;47463;49.884;10.010;2023-01-09T16:50:00;1.7;;;1.2;;
61570;SDS011;47463;49.884;10.010;2023-01-09T16:55:00;3.4;;;1.3;;
61570;SDS011;47463;49.884;10.010;2023-01-09T17:00:00;3.4;;;1.3;;
61570;SDS011;47463;49.884;10.010;2023-01-09T17:05:00;2.3;;;1.4;;
61570;SDS011;47463;49.884;10.010;2023-01-09T17:10:00;6.4;;;1.7;;
61570;SDS011;47463;49.884;10.010;2023-01-09T17:15:00;3.4;;;1.3;;
61570;SDS011;47463;49.884;10.010;2023-01-09T17:20:00;2;;;1.5;;
61570;SDS011;47463;49.884;10.010;2023-01-09T17:25:00;3.9;;;2.1;;
61570;SDS011;47463;49.884;10.010;2023-01-09T17:30:00;3.9;;;2.1;;
61570;SDS011;47463;49.884;10.010;2023-01-09T17:35:00;2.6;;;1.5;;
61570;SDS011;47463;49.884;10.010;2023-01-09T17:40:00;3;;;1.6;;
61570;SDS011;47463;49.884;10.010;2023-01-09T17:45:00;4.1;;;1.8;;
61570;SDS011;47463;49.884;10.010;2023-01-09T17:50:00;2.8;;;1.5;;
61570;SDS011;47463;49.884;10.010;2023-01-09T17:55:00;4.1;;;2.4;;
61570;SDS011;47463;49.884;10.010;2023-01-09T18:00:00;4.1;;;2.4;;
61570;SDS011;47463;49.884;10.010;2023-01-09T18:05:00;2.6;;;1.6;;
61570;SDS011;47463;49.884;10.010;2023-01-09T18:10:00;3.3;;;1.6;;
61570;SDS011;47463;49.884;10.010;2023-01-09T18:15:00;5;;;1.9;;
61570;SDS011;47463;49.884;10.010;2023-01-09T18:20:00;4.1;;;2.3;;
61570;SDS011;47463;49.884;10.010;2023-01-09T18:25:00;5.7;;;2.5;;
61570;SDS011;47463;49.884;10.010;2023-01-09T18:30:00;5.7;;;2.5;;
61570;SDS011;47463;49.884;10.010;2023-01-09T18:35:00;4.3;;;2.1;;
61570;SDS011;47463;49.884;10.010;2023-01-09T18:40:00;6.2;;;2.1;;
61570;SDS011;47463;49.884;10.010;2023-01-09T18:45:00;5.8;;;2.5;;
61570;SDS011;47463;49.884;10.010;2023-01-09T18:50:00;5.6;;;2.8;;
61570;SDS011;47463;49.884;10.010;2023-01-09T18:55:00;3.9;;;2.1;;
61570;SDS011;47463;49.884;10.010;2023-01-09T19:00:00;3.9;;;2.1;;
61570;SDS011;47463;49.884;10.010;2023-01-09T19:05:00;4.5;;;1.9;;
61570;SDS011;47463;49.884;10.010;2023-01-09T19:10:00;2.6;;;1.7;;
61570;SDS011;47463;49.884;10.010;2023-01-09T19:15:00;4.4;;;1.7;;
61570;SDS011;47463;49.884;10.010;2023-01-09T19:20:00;5.1;;;2.2;;
61570;SDS011;47463;49.884;10.010;2023-01-09T19:25:00;3.7;;;1.5;;
61570;SDS011;47463;49.884;10.010;2023-01-09T19:30:00;3.7;;;1.5;;
61570;SDS011;47463;49.884;10.010;2023-01-09T19:35:00;3.1;;;1.4;;
61570;SDS011;47463;49.884;10.010;2023-01-09T19:40:00;3.4;;;1.5;;
61570;SDS011;47463;49.884;10.010;2023-01-09T19:45:00;2.9;;;1.4;;
61570;SDS011;47463;49.884;10.010;2023-01-09T19:50:00;3.5;;;1.5;;
61570;SDS011;47463;49.884;10.010;2023-01-09T19:55:00;3.5;;;1.6;;
61570;SDS011;47463;49.884;10.010;2023-01-09T20:00:00;3.5;;;1.6;;
61570;SDS011;47463;49.884;10.010;2023-01-09T20:05:00;2.8;;;1.4;;
61570;SDS011;47463;49.884;10.010;2023-01-09T20:10:00;2.8;;;1.5;;
61570;SDS011;47463;49.884;10.010;2023-01-09T20:15:00;4.6;;;1.7;;
61570;SDS011;47463;49.884;10.010;2023-01-09T20:20:00;2.2;;;1.6;;
61570;SDS011;47463;49.884;10.010;2023-01-09T20:25:00;3.1;;;1.4;;
61570;SDS011;47463;49.884;10.010;2023-01-09T20:30:00;3.1;;;1.4;;
61570;SDS011;47463;49.884;10.010;2023-01-09T20:35:00;3.1;;;1.5;;
61570;SDS011;47463;49.884;10.010;2023-01-09T20:40:00;2.9;;;1.6;;
61570;SDS011;47463;49.884;10.010;2023-01-09T20:45:00;2.9;;;1.3;;
61570;SDS011;47463;49.884;10.010;2023-01-09T20:50:00;2.3;;;1.3;;
61570;SDS011;47463;49.884;10.010;2023-01-09T20:55:00;2.6;;;1.3;;
61570;SDS011;47463;49.884;10.010;2023-01-09T21:00:00;2.6;;;1.3;;
61570;SDS011;47463;49.884;10.010;2023-01-09T21:05:00;2.5;;;1.3;;
61570;SDS011;47463;49.884;10.010;2023-01-09T21:10:00;3.4;;;1.1;;
61570;SDS011;47463;49.884;10.010;2023-01-09T21:15:00;2.6;;;1.2;;
61570;SDS011;47463;49.884;10.010;2023-01-09T21:20:00;2.8;;;1.2;;
61570;SDS011;47463;49.884;10.010;2023-01-09T21:25:00;4.4;;;1.1;;
61570;SDS011;47463;49.884;10.010;2023-01-09T21:30:00;4.4;;;1.1;;
61570;SDS011;47463;49.884;10.010;2023-01-09T21:35:00;3;;;1.3;;
61570;SDS011;47463;49.884;10.010;2023-01-09T21:40:00;3.1;;;1.3;;
61570;SDS011;47463;49.884;10.010;2023-01-09T21:45:00;1.5;;;1;;
61570;SDS011;47463;49.884;10.010;2023-01-09T21:50:00;4.5;;;1.2;;
61570;SDS011;47463;49.884;10.010;2023-01-09T21:55:00;2.3;;;1.1;;
61570;SDS011;47463;49.884;10.010;2023-01-09T22:00:00;2.3;;;1.1;;
61570;SDS011;47463;49.884;10.010;2023-01-09T22:05:00;2.3;;;1.1;;
61570;SDS011;47463;49.884;10.010;2023-01-09T22:10:00;3.2;;;1.1;;
61570;SDS011;47463;49.884;10.010;2023-01-09T22:15:00;4.6;;;1.3;;
61570;SDS011;47463;49.884;10.010;2023-01-09T22:20:00;2.3;;;1.2;;
61570;SDS011;47463;49.884;10.010;2023-01-09T22:25:00;3.7;;;1.9;;
61570;SDS011;47463;49.884;10.010;2023-01-09T22:30:00;3.7;;;1.9;;
61570;SDS011;47463;49.884;10.010;2023-01-09T22:35:00;3.3;;;1.1;;
61570;SDS011;47463;49.884;10.010;2023-01-09T22:40:00;2.2;;;1.2;;
61570;SDS011;47463;49.884;10.010;2023-01-09T22:45:00;2.3;;;1.1;;
61570;SDS011;47463;49.884;10.010;2023-01-09T22:50:00;2.7;;;1;;
61570;SDS011;47463;49.884;10.010;2023-01-09T22:55:00;4;;;1.3;;
61570;SDS011;47463;49.884;10.010;2023-01-09T23:00:00;4;;;1.3;;
61570;SDS011;47463;49.884;10.010;2023-01-09T23:05:00;2.4;;;1.1;;
61570;SDS011;47463;49.884;10.010;2023-01-09T23:10:00;3.2;;;1.2;;
61570;SDS011;47463;49.884;10.010;2023-01-09T23:15:00;3.8;;;1.3;;
61570;SDS011;47463;49.884;10.010;2023-01-09T23:20:00;3.7;;;1.2;;
61570;SDS011;47463;49.884;10.010;2023-01-09T23:25:00;3.8;;;1.3;;
61570;SDS011;47463;49.884;10.010;2023-01-09T23:30:00;3.8;;;1.3;;
61570;SDS011;47463;49.884;10.010;2023-01-09T23:35:00;2.1;;;1.3;;
61570;SDS011;47463;49.884;10.010;2023-01-09T23:40:00;4.2;;;1.3;;
61570;SDS011;47463;49.884;10.010;2023-01-09T23:45:00;3.3;;;1.3;;
61570;SDS011;47463;49.884;10.010;2023-01-09T23:50:00;2.7;;;1.2;;
61570;SDS011;47463;49.884;10.010;2023-01-09T23:55:00;3.3;;;1.3;;
